ADDS METAR Data INFO
IDs: Format: Raw Decoded Include TAF

Data at: 1950 UTC 14 Aug 2018

METAR for:KSUA (Stuart/Witham Fld, FL, US)
Text:KSUA 141947Z 00000KT 7SM VCTS SCT025 27/22 A3008
Temperature: 27.0°C ( 81°F)
Dewpoint: 22.0°C ( 72°F) [RH = 74%]
Pressure (altimeter):30.08 inches Hg (1018.7 mb)
Winds:calm
Visibility: 7 sm ( 11 km)
Ceiling:at least 12,000 feet AGL
Clouds: scattered clouds at 2500 feet AGL
Weather:VCTS (thunderstorm in vicinity)